createdAt,value
2023-04-30T00:01:45.555Z,100.00
2023-04-30T00:04:12.234Z,100.00
2023-04-30T00:06:41.595Z,100.00
2023-04-30T00:09:08.268Z,100.00
2023-04-30T00:11:34.798Z,100.00
2023-04-30T00:14:01.373Z,100.00
2023-04-30T00:16:28.045Z,100.00
2023-04-30T00:18:54.718Z,100.00
2023-04-30T00:21:26.272Z,100.00
2023-04-30T00:23:55.152Z,100.00
2023-04-30T00:26:21.680Z,99.07
2023-04-30T00:28:48.274Z,100.00
2023-04-30T00:31:17.073Z,100.00
2023-04-30T00:33:46.203Z,100.00
2023-04-30T00:36:12.827Z,100.00
2023-04-30T00:38:41.504Z,100.00
2023-04-30T00:41:08.092Z,100.00
2023-04-30T00:43:39.309Z,100.00
2023-04-30T00:46:07.989Z,100.00
2023-04-30T00:48:34.617Z,100.00
2023-04-30T00:51:04.086Z,100.00
2023-04-30T00:53:31.403Z,100.00
2023-04-30T00:55:58.925Z,100.00
2023-04-30T00:58:28.134Z,100.00
2023-04-30T01:00:56.993Z,100.00
2023-04-30T01:03:24.170Z,100.00
2023-04-30T01:05:50.852Z,100.00
2023-04-30T01:08:17.636Z,100.00
2023-04-30T01:11:00.136Z,100.00
2023-04-30T01:13:35.787Z,100.00
2023-04-30T01:16:35.933Z,100.00
2023-04-30T01:19:11.872Z,100.00
2023-04-30T01:21:45.689Z,100.00
2023-04-30T01:24:48.240Z,100.00
2023-04-30T01:27:30.450Z,100.00
2023-04-30T01:30:00.185Z,100.00
2023-04-30T01:32:26.913Z,100.00
2023-04-30T01:34:53.483Z,100.00
2023-04-30T01:37:19.958Z,100.00
2023-04-30T01:39:49.013Z,100.00
2023-04-30T01:42:42.084Z,100.00
2023-04-30T01:45:43.409Z,100.00
2023-04-30T01:48:28.524Z,100.00
2023-04-30T01:51:09.837Z,100.00
2023-04-30T01:53:43.956Z,100.00
2023-04-30T01:56:18.454Z,100.00
2023-04-30T01:58:47.149Z,100.00
2023-04-30T02:01:36.383Z,100.00
2023-04-30T02:04:06.273Z,100.00
2023-04-30T02:06:33.459Z,100.00
2023-04-30T02:09:05.352Z,100.00
2023-04-30T02:11:32.118Z,100.00
2023-04-30T02:13:58.697Z,100.00
2023-04-30T02:16:25.427Z,100.00
2023-04-30T02:18:54.464Z,100.00
2023-04-30T02:21:21.318Z,100.00
2023-04-30T02:23:48.074Z,100.00
2023-04-30T02:26:21.950Z,100.00
2023-04-30T02:28:48.525Z,100.00
2023-04-30T02:31:19.779Z,100.00
2023-04-30T02:33:48.653Z,100.00
2023-04-30T02:36:15.182Z,100.00
2023-04-30T02:38:41.790Z,100.00
2023-04-30T02:41:08.328Z,100.00
2023-04-30T02:43:34.914Z,100.00
2023-04-30T02:46:01.509Z,100.00
2023-04-30T02:48:32.832Z,100.00
2023-04-30T02:50:59.378Z,100.00
2023-04-30T02:53:28.403Z,100.00
2023-04-30T02:55:54.975Z,100.00
2023-04-30T02:58:21.534Z,100.00
2023-04-30T03:00:50.636Z,100.00
2023-04-30T03:03:17.366Z,100.00
2023-04-30T03:05:43.949Z,100.00
2023-04-30T03:08:10.590Z,100.00
2023-04-30T03:10:37.146Z,100.00
2023-04-30T03:13:08.241Z,100.00
2023-04-30T03:15:34.824Z,100.00
2023-04-30T03:18:01.433Z,100.00
2023-04-30T03:20:27.968Z,100.00
2023-04-30T03:22:54.804Z,100.00
2023-04-30T03:25:21.308Z,100.00
2023-04-30T03:27:50.111Z,100.00
2023-04-30T03:30:18.917Z,100.00
2023-04-30T03:32:50.578Z,100.00
2023-04-30T03:35:17.459Z,100.00
2023-04-30T03:37:43.993Z,100.00
2023-04-30T03:40:13.376Z,100.00
2023-04-30T03:42:40.086Z,100.00
2023-04-30T03:45:09.626Z,100.00
2023-04-30T03:47:41.218Z,100.00
2023-04-30T03:50:11.692Z,100.00
2023-04-30T03:52:38.473Z,100.00
2023-04-30T03:55:07.720Z,100.00
2023-04-30T03:57:38.994Z,100.00
2023-04-30T04:00:07.823Z,100.00
2023-04-30T04:02:37.027Z,100.00
2023-04-30T04:05:04.368Z,100.00
2023-04-30T04:07:30.909Z,100.00
2023-04-30T04:09:57.465Z,100.00
2023-04-30T04:12:24.090Z,100.00
2023-04-30T04:14:53.629Z,100.00
2023-04-30T04:17:22.537Z,100.00
2023-04-30T04:19:49.193Z,100.00
2023-04-30T04:22:15.734Z,100.00
2023-04-30T04:24:44.675Z,100.00
2023-04-30T04:27:13.580Z,100.00
2023-04-30T04:29:40.118Z,100.00
2023-04-30T04:32:06.920Z,100.00
2023-04-30T04:34:33.846Z,100.00
2023-04-30T04:37:03.258Z,100.00
2023-04-30T04:39:29.829Z,100.00
2023-04-30T04:41:58.605Z,100.00
2023-04-30T04:44:25.141Z,100.00
2023-04-30T04:46:54.022Z,100.00
2023-04-30T04:49:20.984Z,100.00
2023-04-30T04:51:52.280Z,100.00
2023-04-30T04:54:21.288Z,100.00
2023-04-30T04:56:52.682Z,100.00
2023-04-30T04:59:21.711Z,100.00
2023-04-30T05:01:48.435Z,100.00
2023-04-30T05:04:17.489Z,100.00
2023-04-30T05:06:48.836Z,100.00
2023-04-30T05:09:17.544Z,100.00
2023-04-30T05:11:49.232Z,100.00
2023-04-30T05:14:17.970Z,100.00
2023-04-30T05:16:47.097Z,100.00
2023-04-30T05:19:16.041Z,100.00
2023-04-30T05:21:44.706Z,100.00
2023-04-30T05:24:16.208Z,100.00
2023-04-30T05:26:45.104Z,100.00
2023-04-30T05:29:12.396Z,100.00
2023-04-30T05:31:41.980Z,100.00
2023-04-30T05:34:10.961Z,100.00
2023-04-30T05:36:40.169Z,100.00
2023-04-30T05:39:07.118Z,100.00
2023-04-30T05:41:33.706Z,100.00
2023-04-30T05:44:00.505Z,100.00
2023-04-30T05:46:30.143Z,100.00
2023-04-30T05:48:58.935Z,100.00
2023-04-30T05:51:31.286Z,100.00
2023-04-30T05:54:00.458Z,100.00
2023-04-30T05:56:30.045Z,100.00
2023-04-30T05:58:58.817Z,100.00
2023-04-30T06:01:25.513Z,100.00
2023-04-30T06:03:54.517Z,100.00
2023-04-30T06:06:23.668Z,100.00
2023-04-30T06:08:52.384Z,100.00
2023-04-30T06:11:21.486Z,100.00
2023-04-30T06:13:48.777Z,100.00
2023-04-30T06:16:15.389Z,100.00
2023-04-30T06:18:41.945Z,100.00
2023-04-30T06:21:08.486Z,100.00
2023-04-30T06:23:35.705Z,100.00
2023-04-30T06:26:04.735Z,100.00
2023-04-30T06:28:35.891Z,100.00
2023-04-30T06:31:05.011Z,100.00
2023-04-30T06:33:31.584Z,100.00
2023-04-30T06:36:00.341Z,100.00
2023-04-30T06:38:26.912Z,100.00
2023-04-30T06:40:55.637Z,100.00
2023-04-30T06:43:24.466Z,100.00
2023-04-30T06:45:53.366Z,100.00
2023-04-30T06:48:20.365Z,100.00
2023-04-30T06:50:46.969Z,100.00
2023-04-30T06:53:16.591Z,100.00
2023-04-30T06:55:48.473Z,100.00
2023-04-30T06:58:15.223Z,100.00
2023-04-30T07:00:46.621Z,99.91
2023-04-30T07:03:15.666Z,99.27
2023-04-30T07:05:42.551Z,100.00
2023-04-30T07:08:09.098Z,100.00
2023-04-30T07:10:35.780Z,98.74
2023-04-30T07:13:08.319Z,99.91
2023-04-30T07:15:35.078Z,99.98
2023-04-30T07:18:01.686Z,99.80
2023-04-30T07:20:28.252Z,96.64
2023-04-30T07:22:56.997Z,97.56
2023-04-30T07:25:23.700Z,99.14
2023-04-30T07:27:55.797Z,97.84
2023-04-30T07:30:25.399Z,97.16
2023-04-30T07:32:52.141Z,98.50
2023-04-30T07:35:19.097Z,98.21
2023-04-30T07:37:45.824Z,99.33
2023-04-30T07:40:15.355Z,100.00
2023-04-30T07:42:46.272Z,100.00
2023-04-30T07:45:13.395Z,98.56
2023-04-30T07:47:40.093Z,98.53
2023-04-30T07:50:07.341Z,99.53
2023-04-30T07:52:34.565Z,99.29
2023-04-30T07:55:01.131Z,98.83
2023-04-30T07:57:30.147Z,98.50
2023-04-30T07:59:59.215Z,95.61
2023-04-30T08:02:28.563Z,97.94
2023-04-30T08:05:00.180Z,98.08
2023-04-30T08:07:29.206Z,98.37
2023-04-30T08:09:56.014Z,97.49
2023-04-30T08:12:22.801Z,97.10
2023-04-30T08:15:02.253Z,94.96
2023-04-30T08:17:28.908Z,92.74
2023-04-30T08:19:55.658Z,94.23
2023-04-30T08:22:23.495Z,93.21
2023-04-30T08:24:50.395Z,92.61
2023-04-30T08:27:16.978Z,91.89
2023-04-30T08:29:43.591Z,92.79
2023-04-30T08:32:10.271Z,94.63
2023-04-30T08:34:44.855Z,97.20
2023-04-30T08:37:13.836Z,97.35
2023-04-30T08:39:40.542Z,95.81
2023-04-30T08:42:09.972Z,91.31
2023-04-30T08:44:44.054Z,91.71
2023-04-30T08:47:14.300Z,92.49
2023-04-30T08:49:41.452Z,89.07
2023-04-30T08:52:10.582Z,90.22
2023-04-30T08:54:37.765Z,89.60
2023-04-30T08:57:07.955Z,91.30
2023-04-30T08:59:36.927Z,88.27
2023-04-30T09:02:06.297Z,85.66
2023-04-30T09:04:35.381Z,86.71
2023-04-30T09:07:05.171Z,83.97
2023-04-30T09:09:38.714Z,83.82
2023-04-30T09:12:18.607Z,82.15
2023-04-30T09:15:02.159Z,84.41
2023-04-30T09:17:31.003Z,84.43
2023-04-30T09:20:11.068Z,83.50
2023-04-30T09:22:41.896Z,83.42
2023-04-30T09:25:09.916Z,82.03
2023-04-30T09:27:36.534Z,79.18
2023-04-30T09:30:05.674Z,78.56
2023-04-30T09:32:36.785Z,78.86
2023-04-30T09:35:03.428Z,76.04
2023-04-30T09:37:38.120Z,75.90
2023-04-30T09:40:05.248Z,75.89
2023-04-30T09:42:39.796Z,75.97
2023-04-30T09:45:11.248Z,77.82
2023-04-30T09:47:41.929Z,73.10
2023-04-30T09:50:08.908Z,74.60
2023-04-30T09:52:35.800Z,74.10
2023-04-30T09:55:08.432Z,71.49
2023-04-30T09:57:38.195Z,72.38
2023-04-30T10:00:05.870Z,71.36
2023-04-30T10:02:33.609Z,75.81
2023-04-30T10:05:01.130Z,73.75
2023-04-30T10:07:34.251Z,74.92
2023-04-30T10:10:08.626Z,73.49
2023-04-30T10:12:51.022Z,71.29
2023-04-30T10:15:21.194Z,71.45
2023-04-30T10:17:56.662Z,70.42
2023-04-30T10:20:26.837Z,71.19
2023-04-30T10:22:53.904Z,67.77
2023-04-30T10:25:20.563Z,67.30
2023-04-30T10:27:47.267Z,68.41
2023-04-30T10:30:15.444Z,68.31
2023-04-30T10:33:29.189Z,68.53
2023-04-30T10:36:13.407Z,69.70
2023-04-30T10:38:45.977Z,71.84
2023-04-30T10:41:15.184Z,71.58
2023-04-30T10:43:41.963Z,71.04
2023-04-30T10:46:08.663Z,72.33
2023-04-30T10:48:37.450Z,70.74
2023-04-30T10:51:04.319Z,68.39
2023-04-30T10:53:36.604Z,66.53
2023-04-30T10:56:09.974Z,67.56
2023-04-30T10:58:44.158Z,65.61
2023-04-30T11:01:15.850Z,66.98
2023-04-30T11:04:11.800Z,65.72
2023-04-30T11:06:57.094Z,66.01
2023-04-30T11:09:38.865Z,67.24
2023-04-30T11:12:14.363Z,65.25
2023-04-30T11:14:47.549Z,66.76
2023-04-30T11:17:23.556Z,66.28
2023-04-30T11:19:54.659Z,69.30
2023-04-30T11:22:30.077Z,68.05
2023-04-30T11:24:59.765Z,65.36
2023-04-30T11:27:28.448Z,66.17
2023-04-30T11:29:56.393Z,67.08
2023-04-30T11:32:34.166Z,63.80
2023-04-30T11:35:04.164Z,63.39
2023-04-30T11:37:35.950Z,62.71
2023-04-30T11:40:06.022Z,64.82
2023-04-30T11:42:35.404Z,65.11
2023-04-30T11:45:21.061Z,64.19
2023-04-30T11:47:50.496Z,63.23
2023-04-30T11:50:19.391Z,64.23
2023-04-30T11:52:50.705Z,63.79
2023-04-30T11:55:19.583Z,65.83
2023-04-30T11:57:53.159Z,63.79
2023-04-30T12:00:21.561Z,64.03
2023-04-30T12:02:50.189Z,62.21
2023-04-30T12:05:20.178Z,60.66
2023-04-30T12:07:51.066Z,60.99
2023-04-30T12:10:25.970Z,62.23
2023-04-30T12:12:54.681Z,62.43
2023-04-30T12:15:26.313Z,63.18
2023-04-30T12:18:02.050Z,63.43
2023-04-30T12:20:34.278Z,61.96
2023-04-30T12:23:03.323Z,61.41
2023-04-30T12:25:40.973Z,66.23
2023-04-30T12:28:10.126Z,63.86
2023-04-30T12:30:36.784Z,64.20
2023-04-30T12:33:06.204Z,63.03
2023-04-30T12:35:32.910Z,61.35
2023-04-30T12:38:07.458Z,62.87
2023-04-30T12:40:34.692Z,61.43
2023-04-30T12:43:02.166Z,61.75
2023-04-30T12:45:56.476Z,61.92
2023-04-30T12:48:30.765Z,62.05
2023-04-30T12:51:05.049Z,62.92
2023-04-30T12:53:34.796Z,63.55
2023-04-30T12:56:17.180Z,64.59
2023-04-30T12:58:49.774Z,64.60
2023-04-30T13:01:24.320Z,62.92
2023-04-30T13:03:54.933Z,61.30
2023-04-30T13:06:23.442Z,64.14
2023-04-30T13:08:58.545Z,60.95
2023-04-30T13:11:26.956Z,63.62
2023-04-30T13:13:55.748Z,62.13
2023-04-30T13:16:24.617Z,61.50
2023-04-30T13:18:53.993Z,61.70
2023-04-30T13:21:21.210Z,63.14
2023-04-30T13:23:54.045Z,63.03
2023-04-30T13:26:24.566Z,63.17
2023-04-30T13:28:56.056Z,62.64
2023-04-30T13:31:27.545Z,61.32
2023-04-30T13:33:54.927Z,63.09
2023-04-30T13:36:21.555Z,62.43
2023-04-30T13:38:50.294Z,62.70
2023-04-30T13:41:16.906Z,62.10
2023-04-30T13:43:47.726Z,60.85
2023-04-30T13:46:15.123Z,61.18
2023-04-30T13:48:44.031Z,64.31
2023-04-30T13:51:15.321Z,62.83
2023-04-30T13:53:41.902Z,60.02
2023-04-30T13:56:08.526Z,61.23
2023-04-30T13:58:35.047Z,61.90
2023-04-30T14:01:01.868Z,60.79
2023-04-30T14:03:28.575Z,61.31
2023-04-30T14:05:55.524Z,62.36
2023-04-30T14:08:25.042Z,61.81
2023-04-30T14:10:51.633Z,61.74
2023-04-30T14:13:20.682Z,62.07
2023-04-30T14:15:51.858Z,62.73
2023-04-30T14:18:23.523Z,62.81
2023-04-30T14:20:52.311Z,64.26
2023-04-30T14:23:21.110Z,62.78
2023-04-30T14:25:50.194Z,62.40
2023-04-30T14:28:21.619Z,65.88
2023-04-30T14:30:48.162Z,63.36
2023-04-30T14:33:17.321Z,63.53
2023-04-30T14:35:47.458Z,63.07
2023-04-30T14:38:14.923Z,63.95
2023-04-30T14:40:43.375Z,65.30
2023-04-30T14:43:09.969Z,64.85
2023-04-30T14:45:37.254Z,68.75
2023-04-30T14:48:06.237Z,66.53
2023-04-30T14:50:32.803Z,66.12
2023-04-30T14:53:01.909Z,64.72
2023-04-30T14:55:28.557Z,63.53
2023-04-30T14:57:58.089Z,64.97
2023-04-30T15:00:29.488Z,65.22
2023-04-30T15:02:58.770Z,67.36
2023-04-30T15:05:31.255Z,65.40
2023-04-30T15:08:00.134Z,64.75
2023-04-30T15:10:28.953Z,63.82
2023-04-30T15:12:57.671Z,65.37
2023-04-30T15:15:28.717Z,65.69
2023-04-30T15:17:57.649Z,64.47
2023-04-30T15:20:26.897Z,67.43
2023-04-30T15:22:54.980Z,64.77
2023-04-30T15:25:24.763Z,64.99
2023-04-30T15:27:54.274Z,66.04
2023-04-30T15:30:23.588Z,64.50
2023-04-30T15:32:50.542Z,66.47
2023-04-30T15:35:17.728Z,65.21
2023-04-30T15:37:44.892Z,64.33
2023-04-30T15:40:15.217Z,67.17
2023-04-30T15:42:42.056Z,66.68
2023-04-30T15:45:12.008Z,64.62
2023-04-30T15:47:39.085Z,65.01
2023-04-30T15:50:11.299Z,64.31
2023-04-30T15:52:39.934Z,65.81
2023-04-30T15:55:09.708Z,65.21
2023-04-30T15:57:38.599Z,64.90
2023-04-30T16:00:10.749Z,63.50
2023-04-30T16:02:41.831Z,66.99
2023-04-30T16:05:13.629Z,65.09
2023-04-30T16:07:43.057Z,66.62
2023-04-30T16:10:10.989Z,66.49
2023-04-30T16:12:39.757Z,66.29
2023-04-30T16:15:07.804Z,68.84
2023-04-30T16:17:34.364Z,66.53
2023-04-30T16:20:03.936Z,66.63
2023-04-30T16:22:30.495Z,67.72
2023-04-30T16:24:59.277Z,67.29
2023-04-30T16:27:30.847Z,66.90
2023-04-30T16:30:01.074Z,68.48
2023-04-30T16:32:30.217Z,67.73
2023-04-30T16:34:59.119Z,67.25
2023-04-30T16:37:28.693Z,69.52
2023-04-30T16:40:10.434Z,66.05
2023-04-30T16:42:39.123Z,66.35
2023-04-30T16:45:09.440Z,67.72
2023-04-30T16:47:38.145Z,68.37
2023-04-30T16:50:05.107Z,69.44
2023-04-30T16:52:33.921Z,68.10
2023-04-30T16:55:05.150Z,71.89
2023-04-30T16:57:31.884Z,70.85
2023-04-30T16:59:58.592Z,68.96
2023-04-30T17:02:25.468Z,69.37
2023-04-30T17:04:52.470Z,68.79
2023-04-30T17:07:19.052Z,70.50
2023-04-30T17:09:45.711Z,68.82
2023-04-30T17:12:12.290Z,71.72
2023-04-30T17:14:43.618Z,73.72
2023-04-30T17:17:14.978Z,68.20
2023-04-30T17:19:46.306Z,69.31
2023-04-30T17:22:13.221Z,76.19
2023-04-30T17:24:42.778Z,73.01
2023-04-30T17:27:09.550Z,73.06
2023-04-30T17:29:36.114Z,71.93
2023-04-30T17:32:10.591Z,71.00
2023-04-30T17:34:42.449Z,72.84
2023-04-30T17:37:11.217Z,71.04
2023-04-30T17:39:40.536Z,76.68
2023-04-30T17:42:09.688Z,74.25
2023-04-30T17:44:39.843Z,71.48
2023-04-30T17:47:07.683Z,74.24
2023-04-30T17:49:34.213Z,76.45
2023-04-30T17:52:03.885Z,76.08
2023-04-30T17:54:36.527Z,75.56
2023-04-30T17:57:05.527Z,72.36
2023-04-30T17:59:32.222Z,78.58
2023-04-30T18:01:59.098Z,73.15
2023-04-30T18:04:28.229Z,72.45
2023-04-30T18:06:54.841Z,73.32
2023-04-30T18:09:26.220Z,72.26
2023-04-30T18:11:53.419Z,73.93
2023-04-30T18:14:20.012Z,72.10
2023-04-30T18:16:48.738Z,70.72
2023-04-30T18:19:15.836Z,71.96
2023-04-30T18:21:47.612Z,73.71
2023-04-30T18:24:14.175Z,72.68
2023-04-30T18:26:43.690Z,75.40
2023-04-30T18:29:10.261Z,71.88
2023-04-30T18:31:39.821Z,76.80
2023-04-30T18:34:06.592Z,73.37
2023-04-30T18:36:36.155Z,72.11
2023-04-30T18:39:03.293Z,72.31
2023-04-30T18:41:29.860Z,74.11
2023-04-30T18:43:56.808Z,76.93
2023-04-30T18:46:23.894Z,74.44
2023-04-30T18:48:50.478Z,75.83
2023-04-30T18:51:17.030Z,72.62
2023-04-30T18:53:47.631Z,74.06
2023-04-30T18:56:15.806Z,76.16
2023-04-30T18:58:44.884Z,72.43
2023-04-30T19:01:14.232Z,72.21
2023-04-30T19:03:42.140Z,72.88
2023-04-30T19:06:11.071Z,71.78
2023-04-30T19:08:37.685Z,72.75
2023-04-30T19:11:06.682Z,72.68
2023-04-30T19:13:35.867Z,72.76
2023-04-30T19:16:02.798Z,74.03
2023-04-30T19:18:31.952Z,73.42
2023-04-30T19:21:01.024Z,72.13
2023-04-30T19:23:31.730Z,72.85
2023-04-30T19:25:59.638Z,72.72
2023-04-30T19:28:26.258Z,73.46
2023-04-30T19:30:55.355Z,71.87
2023-04-30T19:33:25.140Z,74.43
2023-04-30T19:35:59.194Z,73.45
2023-04-30T19:38:28.304Z,71.51
2023-04-30T19:40:54.979Z,70.44
2023-04-30T19:43:22.721Z,71.63
2023-04-30T19:45:56.664Z,73.92
2023-04-30T19:48:24.681Z,74.22
2023-04-30T19:50:53.760Z,71.90
2023-04-30T19:53:27.314Z,74.07
2023-04-30T19:55:53.897Z,74.29
2023-04-30T19:58:20.813Z,72.58
2023-04-30T20:00:47.659Z,72.95
2023-04-30T20:03:16.713Z,73.60
2023-04-30T20:05:44.667Z,72.87
2023-04-30T20:08:15.995Z,72.51
2023-04-30T20:10:46.979Z,73.82
2023-04-30T20:13:18.393Z,72.63
2023-04-30T20:15:49.819Z,71.10
2023-04-30T20:18:18.494Z,71.96
2023-04-30T20:20:48.079Z,71.11
2023-04-30T20:23:19.312Z,71.18
2023-04-30T20:25:46.704Z,70.51
2023-04-30T20:28:15.233Z,71.90
2023-04-30T20:30:43.135Z,71.71
2023-04-30T20:33:15.861Z,71.23
2023-04-30T20:35:47.739Z,70.49
2023-04-30T20:38:14.576Z,70.60
2023-04-30T20:40:45.049Z,72.17
2023-04-30T20:43:14.085Z,73.96
2023-04-30T20:45:46.009Z,72.72
2023-04-30T20:48:12.848Z,72.69
2023-04-30T20:50:40.107Z,74.53
2023-04-30T20:53:11.009Z,73.26
2023-04-30T20:55:37.966Z,72.63
2023-04-30T20:58:09.414Z,74.06
2023-04-30T21:00:36.298Z,74.35
2023-04-30T21:03:03.002Z,73.93
2023-04-30T21:05:30.195Z,74.10
2023-04-30T21:08:01.136Z,73.25
2023-04-30T21:10:35.609Z,73.34
2023-04-30T21:13:08.878Z,74.32
2023-04-30T21:15:39.188Z,73.30
2023-04-30T21:18:08.709Z,72.96
2023-04-30T21:20:35.548Z,75.92
2023-04-30T21:23:02.486Z,75.69
2023-04-30T21:25:29.177Z,75.58
2023-04-30T21:27:55.876Z,74.94
2023-04-30T21:30:25.668Z,74.03
2023-04-30T21:32:58.060Z,73.92
2023-04-30T21:35:29.799Z,72.37
2023-04-30T21:37:56.376Z,71.26
2023-04-30T21:40:22.992Z,74.99
2023-04-30T21:42:52.899Z,76.45
2023-04-30T21:45:19.862Z,75.21
2023-04-30T21:47:47.782Z,73.58
2023-04-30T21:50:14.653Z,75.43
2023-04-30T21:52:46.133Z,71.99
2023-04-30T21:55:17.568Z,76.54
2023-04-30T21:57:47.280Z,74.51
2023-04-30T22:00:17.296Z,74.87
2023-04-30T22:02:49.315Z,72.91
2023-04-30T22:05:19.718Z,73.45
2023-04-30T22:07:47.434Z,74.96
2023-04-30T22:10:14.875Z,73.77
2023-04-30T22:12:47.400Z,74.39
2023-04-30T22:15:15.002Z,74.28
2023-04-30T22:17:41.710Z,75.49
2023-04-30T22:20:09.889Z,73.65
2023-04-30T22:22:36.450Z,73.91
2023-04-30T22:25:03.273Z,75.67
2023-04-30T22:27:29.962Z,73.64
2023-04-30T22:29:59.108Z,73.32
2023-04-30T22:32:26.367Z,72.87
2023-04-30T22:34:53.028Z,75.04
2023-04-30T22:37:19.571Z,74.30
2023-04-30T22:39:48.482Z,73.52
2023-04-30T22:42:18.115Z,79.28
2023-04-30T22:44:47.218Z,75.00
2023-04-30T22:47:13.971Z,77.55
2023-04-30T22:49:41.057Z,77.75
2023-04-30T22:52:10.155Z,75.79
2023-04-30T22:54:36.796Z,77.54
2023-04-30T22:57:06.012Z,75.86
2023-04-30T22:59:33.268Z,76.10
2023-04-30T23:01:59.815Z,76.20
2023-04-30T23:04:28.910Z,76.69
2023-04-30T23:06:55.936Z,76.76
2023-04-30T23:09:24.716Z,81.88
2023-04-30T23:11:53.482Z,78.67
2023-04-30T23:14:27.355Z,85.81
2023-04-30T23:16:56.429Z,88.49
2023-04-30T23:19:23.205Z,79.24
2023-04-30T23:21:52.805Z,80.80
2023-04-30T23:24:19.359Z,84.94
2023-04-30T23:26:48.461Z,84.00
2023-04-30T23:29:15.118Z,85.08
2023-04-30T23:31:41.744Z,88.56
2023-04-30T23:34:10.887Z,88.55
2023-04-30T23:36:40.631Z,93.09
2023-04-30T23:39:07.186Z,96.54
2023-04-30T23:41:36.112Z,100.00
2023-04-30T23:44:04.864Z,92.63
2023-04-30T23:46:34.013Z,92.39
2023-04-30T23:49:00.553Z,100.00
2023-04-30T23:51:27.101Z,98.08
2023-04-30T23:53:53.825Z,100.00
2023-04-30T23:56:20.386Z,98.63
2023-04-30T23:58:49.708Z,100.00
